createdAt,value
2023-05-18T00:01:22.559Z,61.13
2023-05-18T00:03:49.425Z,61.18
2023-05-18T00:06:16.476Z,61.06
2023-05-18T00:08:43.249Z,60.98
2023-05-18T00:11:10.033Z,61.20
2023-05-18T00:13:37.413Z,60.92
2023-05-18T00:16:05.503Z,60.68
2023-05-18T00:18:34.495Z,60.76
2023-05-18T00:21:02.333Z,60.59
2023-05-18T00:23:31.247Z,60.80
2023-05-18T00:26:02.924Z,60.87
2023-05-18T00:28:30.010Z,60.83
2023-05-18T00:30:57.169Z,60.96
2023-05-18T00:33:24.076Z,60.93
2023-05-18T00:35:51.043Z,60.93
2023-05-18T00:38:18.311Z,60.96
2023-05-18T00:40:45.174Z,61.08
2023-05-18T00:43:12.347Z,60.75
2023-05-18T00:45:39.593Z,60.44
2023-05-18T00:48:07.339Z,60.59
2023-05-18T00:50:34.307Z,60.60
2023-05-18T00:53:01.248Z,60.58
2023-05-18T00:55:28.809Z,60.88
2023-05-18T00:57:57.081Z,60.83
2023-05-18T01:00:24.284Z,60.59
2023-05-18T01:02:53.127Z,60.93
2023-05-18T01:05:22.450Z,60.86
2023-05-18T01:07:50.979Z,61.01
2023-05-18T01:10:19.991Z,60.77
2023-05-18T01:13:01.330Z,60.84
2023-05-18T01:15:38.818Z,60.82
2023-05-18T01:18:32.610Z,60.71
2023-05-18T01:21:11.424Z,60.85
2023-05-18T01:24:00.806Z,60.76
2023-05-18T01:26:32.925Z,60.46
2023-05-18T01:29:01.561Z,61.02
2023-05-18T01:31:29.182Z,60.46
2023-05-18T01:33:56.150Z,60.75
2023-05-18T01:36:22.910Z,60.85
2023-05-18T01:38:50.834Z,60.89
2023-05-18T01:41:25.030Z,60.92
2023-05-18T01:44:19.651Z,60.84
2023-05-18T01:46:57.260Z,61.06
2023-05-18T01:49:40.273Z,60.98
2023-05-18T01:52:10.738Z,60.90
2023-05-18T01:54:41.992Z,60.72
2023-05-18T01:57:10.103Z,60.90
2023-05-18T01:59:37.986Z,60.66
2023-05-18T02:02:05.738Z,61.02
2023-05-18T02:04:32.662Z,60.71
2023-05-18T02:06:59.472Z,60.79
2023-05-18T02:09:26.602Z,60.68
2023-05-18T02:11:53.845Z,61.05
2023-05-18T02:14:20.676Z,60.73
2023-05-18T02:16:53.152Z,61.02
2023-05-18T02:19:22.463Z,60.87
2023-05-18T02:21:49.233Z,60.83
2023-05-18T02:24:17.881Z,60.89
2023-05-18T02:26:44.877Z,60.97
2023-05-18T02:29:12.130Z,60.93
2023-05-18T02:31:41.380Z,60.91
2023-05-18T02:34:09.239Z,61.04
2023-05-18T02:36:40.564Z,60.64
2023-05-18T02:39:07.822Z,61.10
2023-05-18T02:41:35.758Z,61.13
2023-05-18T02:44:04.380Z,61.28
2023-05-18T02:46:32.179Z,60.83
2023-05-18T02:48:59.870Z,60.71
2023-05-18T02:51:26.882Z,60.99
2023-05-18T02:53:53.610Z,61.17
2023-05-18T02:56:20.367Z,61.11
2023-05-18T02:58:47.377Z,61.16
2023-05-18T03:01:15.200Z,61.39
2023-05-18T03:03:43.419Z,61.15
2023-05-18T03:06:10.415Z,61.32
2023-05-18T03:08:41.225Z,61.31
2023-05-18T03:11:08.027Z,61.17
2023-05-18T03:13:34.835Z,61.54
2023-05-18T03:16:01.642Z,61.00
2023-05-18T03:18:28.441Z,61.51
2023-05-18T03:20:56.276Z,61.51
2023-05-18T03:23:23.075Z,61.27
2023-05-18T03:25:53.844Z,61.30
2023-05-18T03:28:22.644Z,61.46
2023-05-18T03:30:49.915Z,61.42
2023-05-18T03:33:16.932Z,61.26
2023-05-18T03:35:44.740Z,61.32
2023-05-18T03:38:12.254Z,61.31
2023-05-18T03:40:39.062Z,61.31
2023-05-18T03:43:06.494Z,61.61
2023-05-18T03:45:33.206Z,61.88
2023-05-18T03:48:00.015Z,61.61
2023-05-18T03:50:27.132Z,61.26
2023-05-18T03:52:54.012Z,61.42
2023-05-18T03:55:22.984Z,61.14
2023-05-18T03:57:49.817Z,61.43
2023-05-18T04:00:16.820Z,61.13
2023-05-18T04:02:43.803Z,61.69
2023-05-18T04:05:10.668Z,60.97
2023-05-18T04:07:44.075Z,61.07
2023-05-18T04:10:13.606Z,61.19
2023-05-18T04:12:41.035Z,60.95
2023-05-18T04:15:08.958Z,61.52
2023-05-18T04:17:35.961Z,61.51
2023-05-18T04:20:09.504Z,61.05
2023-05-18T04:22:49.303Z,60.95
2023-05-18T04:25:16.476Z,61.36
2023-05-18T04:27:45.818Z,60.94
2023-05-18T04:30:13.446Z,61.26
2023-05-18T04:32:43.321Z,60.86
2023-05-18T04:35:12.046Z,60.84
2023-05-18T04:37:43.288Z,61.37
2023-05-18T04:40:14.320Z,61.03
2023-05-18T04:42:48.889Z,60.90
2023-05-18T04:45:20.365Z,60.75
2023-05-18T04:47:54.200Z,60.74
2023-05-18T04:50:26.351Z,60.78
2023-05-18T04:52:53.977Z,61.12
2023-05-18T04:55:29.045Z,60.90
2023-05-18T04:57:57.458Z,60.82
2023-05-18T05:00:26.647Z,60.63
2023-05-18T05:02:53.895Z,60.65
2023-05-18T05:05:21.535Z,60.22
2023-05-18T05:07:51.628Z,60.10
2023-05-18T05:10:19.354Z,60.37
2023-05-18T05:12:47.400Z,60.09
2023-05-18T05:15:15.922Z,59.79
2023-05-18T05:17:42.767Z,59.92
2023-05-18T05:20:09.909Z,59.75
2023-05-18T05:22:36.729Z,59.72
2023-05-18T05:25:06.025Z,60.08
2023-05-18T05:27:34.340Z,59.79
2023-05-18T05:30:01.095Z,59.45
2023-05-18T05:32:28.115Z,59.30
2023-05-18T05:34:54.903Z,59.28
2023-05-18T05:37:21.690Z,58.87
2023-05-18T05:39:49.365Z,58.34
2023-05-18T05:42:17.215Z,58.47
2023-05-18T05:44:43.989Z,58.13
2023-05-18T05:47:10.880Z,58.19
2023-05-18T05:49:37.755Z,58.29
2023-05-18T05:52:04.802Z,58.00
2023-05-18T05:54:33.064Z,58.02
2023-05-18T05:56:59.825Z,57.67
2023-05-18T05:59:28.453Z,57.64
2023-05-18T06:01:55.388Z,57.67
2023-05-18T06:04:22.385Z,57.40
2023-05-18T06:06:49.777Z,56.80
2023-05-18T06:09:16.538Z,56.90
2023-05-18T06:11:44.468Z,57.12
2023-05-18T06:14:11.595Z,56.52
2023-05-18T06:16:38.675Z,56.55
2023-05-18T06:19:08.180Z,56.84
2023-05-18T06:21:37.378Z,56.79
2023-05-18T06:24:05.269Z,56.17
2023-05-18T06:26:32.673Z,55.71
2023-05-18T06:28:59.439Z,55.49
2023-05-18T06:31:29.462Z,55.40
2023-05-18T06:33:57.208Z,55.26
2023-05-18T06:36:23.948Z,55.34
2023-05-18T06:38:51.996Z,55.15
2023-05-18T06:41:18.823Z,54.96
2023-05-18T06:43:45.713Z,54.86
2023-05-18T06:46:23.001Z,54.65
2023-05-18T06:48:49.827Z,53.81
2023-05-18T06:51:16.646Z,54.57
2023-05-18T06:53:43.721Z,54.77
2023-05-18T06:56:13.931Z,54.24
2023-05-18T06:58:42.128Z,54.12
2023-05-18T07:01:11.073Z,54.10
2023-05-18T07:03:38.257Z,53.43
2023-05-18T07:06:05.464Z,53.05
2023-05-18T07:08:32.350Z,52.67
2023-05-18T07:10:59.516Z,52.62
2023-05-18T07:13:26.992Z,52.79
2023-05-18T07:15:54.287Z,52.49
2023-05-18T07:18:21.095Z,51.38
2023-05-18T07:20:49.231Z,51.31
2023-05-18T07:23:18.123Z,51.54
2023-05-18T07:25:47.219Z,50.92
2023-05-18T07:28:14.371Z,50.41
2023-05-18T07:30:41.291Z,49.37
2023-05-18T07:33:08.160Z,49.29
2023-05-18T07:35:35.049Z,48.99
2023-05-18T07:38:02.365Z,48.73
2023-05-18T07:40:29.963Z,48.53
2023-05-18T07:42:56.785Z,48.11
2023-05-18T07:45:24.076Z,47.35
2023-05-18T07:47:51.090Z,47.12
2023-05-18T07:50:19.401Z,46.86
2023-05-18T07:52:49.024Z,47.11
2023-05-18T07:55:15.802Z,47.33
2023-05-18T07:57:42.854Z,47.47
2023-05-18T08:00:10.517Z,47.77
2023-05-18T08:02:38.101Z,47.72
2023-05-18T08:05:05.556Z,47.57
2023-05-18T08:07:33.385Z,47.08
2023-05-18T08:10:02.689Z,47.10
2023-05-18T08:12:34.396Z,47.11
2023-05-18T08:15:01.343Z,47.24
2023-05-18T08:17:28.499Z,47.08
2023-05-18T08:19:55.521Z,47.27
2023-05-18T08:22:22.946Z,47.27
2023-05-18T08:24:52.962Z,47.55
2023-05-18T08:27:21.427Z,47.60
2023-05-18T08:29:48.132Z,47.50
2023-05-18T08:32:17.858Z,47.30
2023-05-18T08:34:44.668Z,47.42
2023-05-18T08:37:11.505Z,47.11
2023-05-18T08:39:38.499Z,46.74
2023-05-18T08:42:27.579Z,46.44
2023-05-18T08:45:20.036Z,46.04
2023-05-18T08:47:49.701Z,46.33
2023-05-18T08:50:23.513Z,45.95
2023-05-18T08:53:01.557Z,46.62
2023-05-18T08:55:36.921Z,46.35
2023-05-18T08:58:08.423Z,46.24
2023-05-18T09:00:35.974Z,46.03
2023-05-18T09:03:05.625Z,46.01
2023-05-18T09:05:33.336Z,45.72
2023-05-18T09:08:03.542Z,45.74
2023-05-18T09:10:33.898Z,45.38
2023-05-18T09:13:02.844Z,45.10
2023-05-18T09:15:29.734Z,45.06
2023-05-18T09:17:56.808Z,44.73
2023-05-18T09:20:26.543Z,44.20
2023-05-18T09:22:53.818Z,44.12
2023-05-18T09:25:21.581Z,44.29
2023-05-18T09:27:50.102Z,44.05
2023-05-18T09:30:16.955Z,43.93
2023-05-18T09:32:47.505Z,43.53
2023-05-18T09:35:17.567Z,43.81
2023-05-18T09:37:45.826Z,43.93
2023-05-18T09:40:14.259Z,43.81
2023-05-18T09:42:42.798Z,43.15
2023-05-18T09:45:23.675Z,40.98
2023-05-18T09:47:51.449Z,42.84
2023-05-18T09:50:26.131Z,42.86
2023-05-18T09:52:53.168Z,42.75
2023-05-18T09:55:20.930Z,42.85
2023-05-18T09:57:49.848Z,43.27
2023-05-18T10:00:19.502Z,43.43
2023-05-18T10:02:50.220Z,43.42
2023-05-18T10:05:24.397Z,43.43
2023-05-18T10:07:52.068Z,43.44
2023-05-18T10:10:20.863Z,43.61
2023-05-18T10:12:50.364Z,43.54
2023-05-18T10:15:24.497Z,43.41
2023-05-18T10:17:55.361Z,43.12
2023-05-18T10:20:24.605Z,43.14
2023-05-18T10:22:52.681Z,42.95
2023-05-18T10:25:22.215Z,42.36
2023-05-18T10:27:50.835Z,42.36
2023-05-18T10:30:18.419Z,42.39
2023-05-18T10:32:48.379Z,41.89
2023-05-18T10:35:17.404Z,41.69
2023-05-18T10:37:50.387Z,42.19
2023-05-18T10:40:18.800Z,42.76
2023-05-18T10:42:47.529Z,42.59
2023-05-18T10:45:15.366Z,42.78
2023-05-18T10:47:44.103Z,42.95
2023-05-18T10:50:11.345Z,42.81
2023-05-18T10:52:38.475Z,42.68
2023-05-18T10:55:07.239Z,42.73
2023-05-18T10:57:58.685Z,43.02
2023-05-18T11:00:26.930Z,42.95
2023-05-18T11:02:55.541Z,42.93
2023-05-18T11:05:26.839Z,43.29
2023-05-18T11:08:05.635Z,43.59
2023-05-18T11:10:35.500Z,44.09
2023-05-18T11:13:02.418Z,44.12
2023-05-18T11:15:51.605Z,43.79
2023-05-18T11:18:18.715Z,44.04
2023-05-18T11:20:46.670Z,44.08
2023-05-18T11:23:14.879Z,44.25
2023-05-18T11:25:44.073Z,44.23
2023-05-18T11:28:14.647Z,44.25
2023-05-18T11:30:43.638Z,44.40
2023-05-18T11:33:18.171Z,44.15
2023-05-18T11:36:08.940Z,43.58
2023-05-18T11:38:53.359Z,43.66
2023-05-18T11:41:42.731Z,43.89
2023-05-18T11:44:12.597Z,44.16
2023-05-18T11:47:06.519Z,44.49
2023-05-18T11:49:49.478Z,45.21
2023-05-18T11:52:23.962Z,45.09
2023-05-18T11:54:53.776Z,45.32
2023-05-18T11:57:24.999Z,45.79
2023-05-18T11:59:57.087Z,45.69
2023-05-18T12:02:31.360Z,45.75
2023-05-18T12:05:02.591Z,45.82
2023-05-18T12:07:35.008Z,45.93
2023-05-18T12:10:03.644Z,45.40
2023-05-18T12:12:31.314Z,45.25
2023-05-18T12:15:00.089Z,45.08
2023-05-18T12:17:49.685Z,44.90
2023-05-18T12:20:18.422Z,45.04
2023-05-18T12:22:50.422Z,45.06
2023-05-18T12:25:17.617Z,45.07
2023-05-18T12:27:46.287Z,45.29
2023-05-18T12:30:18.227Z,45.53
2023-05-18T12:32:48.460Z,45.74
2023-05-18T12:35:15.700Z,46.13
2023-05-18T12:37:46.771Z,46.07
2023-05-18T12:40:18.957Z,45.99
2023-05-18T12:43:00.533Z,46.13
2023-05-18T12:45:29.280Z,46.17
2023-05-18T12:47:56.521Z,46.57
2023-05-18T12:50:26.724Z,46.56
2023-05-18T12:52:57.094Z,46.86
2023-05-18T12:55:25.732Z,47.12
2023-05-18T12:58:02.645Z,46.97
2023-05-18T13:00:35.744Z,47.09
2023-05-18T13:03:13.565Z,47.58
2023-05-18T13:05:45.935Z,47.45
2023-05-18T13:08:20.080Z,47.14
2023-05-18T13:10:50.869Z,47.05
2023-05-18T13:13:20.101Z,46.84
2023-05-18T13:15:46.918Z,47.15
2023-05-18T13:18:13.916Z,47.33
2023-05-18T13:20:41.060Z,47.51
2023-05-18T13:23:12.884Z,47.60
2023-05-18T13:25:41.038Z,48.07
2023-05-18T13:28:12.142Z,48.25
2023-05-18T13:30:42.409Z,48.27
2023-05-18T13:33:10.787Z,48.06
2023-05-18T13:35:40.446Z,47.96
2023-05-18T13:38:07.401Z,48.24
2023-05-18T13:40:34.171Z,48.09
2023-05-18T13:43:01.551Z,48.14
2023-05-18T13:45:28.360Z,48.62
2023-05-18T13:47:55.231Z,48.79
2023-05-18T13:50:23.202Z,48.83
2023-05-18T13:52:50.623Z,48.73
2023-05-18T13:55:17.574Z,49.07
2023-05-18T13:57:45.279Z,49.43
2023-05-18T14:00:13.684Z,49.88
2023-05-18T14:02:44.188Z,50.22
2023-05-18T14:05:11.614Z,50.63
2023-05-18T14:07:40.716Z,50.82
2023-05-18T14:10:10.692Z,51.04
2023-05-18T14:12:38.033Z,51.20
2023-05-18T14:15:06.617Z,51.33
2023-05-18T14:17:34.703Z,51.41
2023-05-18T14:20:03.109Z,51.43
2023-05-18T14:22:30.764Z,51.09
2023-05-18T14:24:57.738Z,50.58
2023-05-18T14:27:24.718Z,50.30
2023-05-18T14:29:53.787Z,50.41
2023-05-18T14:32:23.984Z,50.57
2023-05-18T14:34:52.148Z,50.49
2023-05-18T14:37:19.337Z,50.53
2023-05-18T14:39:47.515Z,50.62
2023-05-18T14:42:14.204Z,50.46
2023-05-18T14:44:41.020Z,50.67
2023-05-18T14:47:08.448Z,50.80
2023-05-18T14:49:35.304Z,50.91
2023-05-18T14:52:02.040Z,50.89
2023-05-18T14:54:28.962Z,50.75
2023-05-18T14:56:56.958Z,50.61
2023-05-18T14:59:24.400Z,50.63
2023-05-18T15:01:51.287Z,49.57
2023-05-18T15:04:18.123Z,49.82
2023-05-18T15:06:44.972Z,49.10
2023-05-18T15:09:12.401Z,48.66
2023-05-18T15:11:41.725Z,48.18
2023-05-18T15:14:09.896Z,48.00
2023-05-18T15:16:37.137Z,48.04
2023-05-18T15:19:05.557Z,48.00
2023-05-18T15:21:32.569Z,48.19
2023-05-18T15:23:59.345Z,48.15
2023-05-18T15:26:26.379Z,48.24
2023-05-18T15:28:54.151Z,48.57
2023-05-18T15:31:21.207Z,48.81
2023-05-18T15:33:48.302Z,48.89
2023-05-18T15:36:15.427Z,49.10
2023-05-18T15:38:42.347Z,49.07
2023-05-18T15:41:09.331Z,48.79
2023-05-18T15:43:38.837Z,48.72
2023-05-18T15:46:06.440Z,48.51
2023-05-18T15:48:34.860Z,48.63
2023-05-18T15:51:01.668Z,48.59
2023-05-18T15:53:28.527Z,48.71
2023-05-18T15:55:58.673Z,48.72
2023-05-18T15:58:26.877Z,48.79
2023-05-18T16:00:53.919Z,49.24
2023-05-18T16:03:21.229Z,49.53
2023-05-18T16:05:50.649Z,49.93
2023-05-18T16:08:17.895Z,49.95
2023-05-18T16:10:44.660Z,50.20
2023-05-18T16:13:14.799Z,50.36
2023-05-18T16:15:41.602Z,50.52
2023-05-18T16:18:08.433Z,50.53
2023-05-18T16:20:35.460Z,50.67
2023-05-18T16:23:02.641Z,50.90
2023-05-18T16:25:29.549Z,51.02
2023-05-18T16:27:56.577Z,51.13
2023-05-18T16:30:24.600Z,51.53
2023-05-18T16:32:51.665Z,52.15
2023-05-18T16:35:19.760Z,51.86
2023-05-18T16:37:47.520Z,52.00
2023-05-18T16:40:14.286Z,51.88
2023-05-18T16:42:41.029Z,51.91
2023-05-18T16:45:08.100Z,52.05
2023-05-18T16:47:35.127Z,52.38
2023-05-18T16:50:02.039Z,52.75
2023-05-18T16:52:28.857Z,52.64
2023-05-18T16:54:55.643Z,52.79
2023-05-18T16:57:22.450Z,52.58
2023-05-18T16:59:49.935Z,52.73
2023-05-18T17:02:17.989Z,52.70
2023-05-18T17:04:46.243Z,52.64
2023-05-18T17:07:15.583Z,52.55
2023-05-18T17:09:42.904Z,52.89
2023-05-18T17:12:10.739Z,53.15
2023-05-18T17:14:37.965Z,53.29
2023-05-18T17:17:07.044Z,53.59
2023-05-18T17:19:35.443Z,53.70
2023-05-18T17:22:03.298Z,53.83
2023-05-18T17:24:30.484Z,53.97
2023-05-18T17:26:57.781Z,54.26
2023-05-18T17:29:24.606Z,54.24
2023-05-18T17:31:52.404Z,54.54
2023-05-18T17:34:19.257Z,54.49
2023-05-18T17:36:46.888Z,54.37
2023-05-18T17:39:15.924Z,54.54
2023-05-18T17:41:44.006Z,54.73
2023-05-18T17:44:14.518Z,54.92
2023-05-18T17:46:41.866Z,55.13
2023-05-18T17:49:08.931Z,54.81
2023-05-18T17:51:35.801Z,54.93
2023-05-18T17:54:02.828Z,55.01
2023-05-18T17:56:30.589Z,55.12
2023-05-18T17:58:59.149Z,54.92
2023-05-18T18:01:26.585Z,54.90
2023-05-18T18:03:53.454Z,55.54
2023-05-18T18:08:50.375Z,55.49
2023-05-18T18:11:17.526Z,55.77
2023-05-18T18:13:44.367Z,55.80
2023-05-18T18:16:11.281Z,55.87
2023-05-18T18:18:39.190Z,55.56
2023-05-18T18:21:06.756Z,55.88
2023-05-18T18:23:34.686Z,56.05
2023-05-18T18:26:02.225Z,55.76
2023-05-18T18:28:29.856Z,56.23
2023-05-18T18:30:57.272Z,56.64
2023-05-18T18:33:26.220Z,56.65
2023-05-18T18:35:54.650Z,56.69
2023-05-18T18:38:22.972Z,56.60
2023-05-18T18:40:50.086Z,56.31
2023-05-18T18:43:16.873Z,56.74
2023-05-18T18:45:43.700Z,56.93
2023-05-18T18:48:11.232Z,56.98
2023-05-18T18:50:38.058Z,56.73
2023-05-18T18:53:04.954Z,56.66
2023-05-18T18:55:32.085Z,57.13
2023-05-18T18:58:03.962Z,57.07
2023-05-18T19:00:31.434Z,57.03
2023-05-18T19:02:58.353Z,56.98
2023-05-18T19:05:25.270Z,56.65
2023-05-18T19:07:55.258Z,57.06
2023-05-18T19:10:22.972Z,57.40
2023-05-18T19:12:50.791Z,57.32
2023-05-18T19:15:18.022Z,57.02
2023-05-18T19:17:46.356Z,57.32
2023-05-18T19:20:13.308Z,57.21
2023-05-18T19:22:42.827Z,57.77
2023-05-18T19:25:10.408Z,57.47
2023-05-18T19:27:37.360Z,57.71
2023-05-18T19:30:05.591Z,57.24
2023-05-18T19:32:32.425Z,57.43
2023-05-18T19:34:59.223Z,57.82
2023-05-18T19:37:25.953Z,57.46
2023-05-18T19:39:53.987Z,57.50
2023-05-18T19:42:20.835Z,57.47
2023-05-18T19:44:47.888Z,57.38
2023-05-18T19:47:14.651Z,57.38
2023-05-18T19:49:41.467Z,57.48
2023-05-18T19:52:10.367Z,57.80
2023-05-18T19:54:38.340Z,57.77
2023-05-18T19:57:05.767Z,57.92
2023-05-18T19:59:32.743Z,57.86
2023-05-18T20:01:59.742Z,58.19
2023-05-18T20:04:28.914Z,58.07
2023-05-18T20:06:59.471Z,58.16
2023-05-18T20:09:27.888Z,58.11
2023-05-18T20:11:56.310Z,58.20
2023-05-18T20:14:23.952Z,58.59
2023-05-18T20:16:52.740Z,58.28
2023-05-18T20:19:19.850Z,58.34
2023-05-18T20:21:49.469Z,59.48
2023-05-18T20:24:16.326Z,59.06
2023-05-18T20:26:44.055Z,59.23
2023-05-18T20:29:11.065Z,59.34
2023-05-18T20:31:37.959Z,59.47
2023-05-18T20:34:07.050Z,59.66
2023-05-18T20:36:36.029Z,59.60
2023-05-18T20:39:10.270Z,59.63
2023-05-18T20:41:40.211Z,59.60
2023-05-18T20:44:11.361Z,59.87
2023-05-18T20:46:40.413Z,60.04
2023-05-18T20:49:14.136Z,59.82
2023-05-18T20:51:41.397Z,59.74
2023-05-18T20:54:25.064Z,59.74
2023-05-18T20:56:59.351Z,59.65
2023-05-18T20:59:27.772Z,59.14
2023-05-18T21:01:54.810Z,59.33
2023-05-18T21:04:21.877Z,59.40
2023-05-18T21:06:49.683Z,59.57
2023-05-18T21:09:17.390Z,59.78
2023-05-18T21:11:45.034Z,59.90
2023-05-18T21:14:11.790Z,59.87
2023-05-18T21:16:38.657Z,59.69
2023-05-18T21:19:05.499Z,60.48
2023-05-18T21:21:35.954Z,60.14
2023-05-18T21:24:02.923Z,60.14
2023-05-18T21:26:29.732Z,60.25
2023-05-18T21:28:56.478Z,60.46
2023-05-18T21:31:23.292Z,60.91
2023-05-18T21:33:59.126Z,60.58
2023-05-18T21:36:35.419Z,61.28
2023-05-18T21:39:04.166Z,60.81
2023-05-18T21:41:31.239Z,60.85
2023-05-18T21:43:58.171Z,61.00
2023-05-18T21:46:25.117Z,61.13
2023-05-18T21:48:52.425Z,60.51
2023-05-18T21:51:19.222Z,61.06
2023-05-18T21:53:46.024Z,60.66
2023-05-18T21:56:12.796Z,60.92
2023-05-18T21:58:39.554Z,60.73
2023-05-18T22:01:06.289Z,60.94
2023-05-18T22:03:33.025Z,61.18
2023-05-18T22:05:59.856Z,60.81
2023-05-18T22:08:27.224Z,60.70
2023-05-18T22:10:54.216Z,60.41
2023-05-18T22:13:21.216Z,60.80
2023-05-18T22:15:49.445Z,60.80
2023-05-18T22:18:17.559Z,60.69
2023-05-18T22:20:44.657Z,60.50
2023-05-18T22:23:11.645Z,60.76
2023-05-18T22:25:39.609Z,60.58
2023-05-18T22:28:07.211Z,60.22
2023-05-18T22:30:34.219Z,60.15
2023-05-18T22:33:01.178Z,59.98
2023-05-18T22:35:28.036Z,60.10
2023-05-18T22:37:54.940Z,60.31
2023-05-18T22:40:21.706Z,60.41
2023-05-18T22:42:48.428Z,60.26
2023-05-18T22:45:15.266Z,60.59
2023-05-18T22:47:45.335Z,60.16
2023-05-18T22:50:12.214Z,60.53
2023-05-18T22:52:40.633Z,60.34
2023-05-18T22:55:13.332Z,60.45
2023-05-18T22:57:44.634Z,60.68
2023-05-18T23:00:14.281Z,60.79
2023-05-18T23:02:41.948Z,60.53
2023-05-18T23:05:09.667Z,60.69
2023-05-18T23:07:36.709Z,60.79
2023-05-18T23:10:08.798Z,61.06
2023-05-18T23:12:36.596Z,60.46
2023-05-18T23:15:04.040Z,60.55
2023-05-18T23:17:32.433Z,60.83
2023-05-18T23:20:02.873Z,60.71
2023-05-18T23:22:29.634Z,60.96
2023-05-18T23:24:56.494Z,60.96
2023-05-18T23:27:23.245Z,60.91
2023-05-18T23:29:50.668Z,61.57
2023-05-18T23:32:17.489Z,61.34
2023-05-18T23:34:45.149Z,61.24
2023-05-18T23:37:12.044Z,61.82
2023-05-18T23:39:45.798Z,61.63
2023-05-18T23:42:12.903Z,61.46
2023-05-18T23:44:39.951Z,62.42
2023-05-18T23:47:06.999Z,62.29
2023-05-18T23:49:34.077Z,62.17
2023-05-18T23:52:02.660Z,62.02
2023-05-18T23:54:29.833Z,62.13
2023-05-18T23:57:00.994Z,62.50
2023-05-18T23:59:28.072Z,62.46
